sensor_id;sensor_type;location;lat;lon;timestamp;temperature;humidity
3770;DHT22;1900;48.890;9.190;2024-03-08T00:01:51;9.30;59.80
3770;DHT22;1900;48.890;9.190;2024-03-08T00:04:17;9.30;59.70
3770;DHT22;1900;48.890;9.190;2024-03-08T00:06:43;9.30;59.80
3770;DHT22;1900;48.890;9.190;2024-03-08T00:09:14;9.30;59.80
3770;DHT22;1900;48.890;9.190;2024-03-08T00:11:41;9.30;59.80
3770;DHT22;1900;48.890;9.190;2024-03-08T00:14:06;9.20;59.70
3770;DHT22;1900;48.890;9.190;2024-03-08T00:16:33;9.20;59.70
3770;DHT22;1900;48.890;9.190;2024-03-08T00:19:01;9.10;59.60
3770;DHT22;1900;48.890;9.190;2024-03-08T00:21:26;9.20;59.70
3770;DHT22;1900;48.890;9.190;2024-03-08T00:23:53;9.10;59.60
3770;DHT22;1900;48.890;9.190;2024-03-08T00:26:21;9.10;59.70
3770;DHT22;1900;48.890;9.190;2024-03-08T00:28:49;9.10;59.60
3770;DHT22;1900;48.890;9.190;2024-03-08T00:31:15;9.10;59.50
3770;DHT22;1900;48.890;9.190;2024-03-08T00:33:43;9.00;59.40
3770;DHT22;1900;48.890;9.190;2024-03-08T00:36:09;9.00;59.40
3770;DHT22;1900;48.890;9.190;2024-03-08T00:38:35;9.10;59.50
3770;DHT22;1900;48.890;9.190;2024-03-08T00:41:00;9.00;59.50
3770;DHT22;1900;48.890;9.190;2024-03-08T00:43:27;8.90;60.00
3770;DHT22;1900;48.890;9.190;2024-03-08T00:45:53;8.90;59.30
3770;DHT22;1900;48.890;9.190;2024-03-08T00:48:18;8.90;59.40
3770;DHT22;1900;48.890;9.190;2024-03-08T00:50:44;8.90;59.40
3770;DHT22;1900;48.890;9.190;2024-03-08T00:53:11;8.90;59.40
3770;DHT22;1900;48.890;9.190;2024-03-08T00:55:37;8.90;59.50
3770;DHT22;1900;48.890;9.190;2024-03-08T00:58:04;8.80;59.30
3770;DHT22;1900;48.890;9.190;2024-03-08T01:00:30;8.80;59.40
3770;DHT22;1900;48.890;9.190;2024-03-08T01:02:56;8.90;59.40
3770;DHT22;1900;48.890;9.190;2024-03-08T01:05:22;8.80;59.40
3770;DHT22;1900;48.890;9.190;2024-03-08T01:07:50;8.90;59.40
3770;DHT22;1900;48.890;9.190;2024-03-08T01:10:17;8.80;59.30
3770;DHT22;1900;48.890;9.190;2024-03-08T01:12:42;8.70;59.30
3770;DHT22;1900;48.890;9.190;2024-03-08T01:15:09;8.70;59.30
3770;DHT22;1900;48.890;9.190;2024-03-08T01:17:36;8.70;59.30
3770;DHT22;1900;48.890;9.190;2024-03-08T01:20:03;8.70;59.30
3770;DHT22;1900;48.890;9.190;2024-03-08T01:22:29;8.70;59.30
3770;DHT22;1900;48.890;9.190;2024-03-08T01:24:56;8.70;59.20
3770;DHT22;1900;48.890;9.190;2024-03-08T01:27:22;8.70;59.20
3770;DHT22;1900;48.890;9.190;2024-03-08T01:29:48;8.60;59.20
3770;DHT22;1900;48.890;9.190;2024-03-08T01:32:14;8.60;59.20
3770;DHT22;1900;48.890;9.190;2024-03-08T01:34:40;8.60;59.30
3770;DHT22;1900;48.890;9.190;2024-03-08T01:37:06;8.60;59.30
3770;DHT22;1900;48.890;9.190;2024-03-08T01:39:32;8.60;59.80
3770;DHT22;1900;48.890;9.190;2024-03-08T01:41:58;8.60;59.30
3770;DHT22;1900;48.890;9.190;2024-03-08T01:44:24;8.60;59.20
3770;DHT22;1900;48.890;9.190;2024-03-08T01:46:51;8.50;59.10
3770;DHT22;1900;48.890;9.190;2024-03-08T01:49:18;8.50;59.10
3770;DHT22;1900;48.890;9.190;2024-03-08T01:51:46;8.50;59.10
3770;DHT22;1900;48.890;9.190;2024-03-08T01:54:15;8.50;59.10
3770;DHT22;1900;48.890;9.190;2024-03-08T01:56:42;8.50;59.10
3770;DHT22;1900;48.890;9.190;2024-03-08T01:59:08;8.50;59.10
3770;DHT22;1900;48.890;9.190;2024-03-08T02:01:34;8.50;59.10
3770;DHT22;1900;48.890;9.190;2024-03-08T02:04:00;8.40;59.00
3770;DHT22;1900;48.890;9.190;2024-03-08T02:06:26;8.40;59.00
3770;DHT22;1900;48.890;9.190;2024-03-08T02:08:52;8.40;59.00
3770;DHT22;1900;48.890;9.190;2024-03-08T02:11:18;8.40;59.00
3770;DHT22;1900;48.890;9.190;2024-03-08T02:13:46;8.40;58.90
3770;DHT22;1900;48.890;9.190;2024-03-08T02:16:12;8.40;58.90
3770;DHT22;1900;48.890;9.190;2024-03-08T02:18:37;8.30;58.80
3770;DHT22;1900;48.890;9.190;2024-03-08T02:21:06;8.30;59.10
3770;DHT22;1900;48.890;9.190;2024-03-08T02:23:32;8.30;58.90
3770;DHT22;1900;48.890;9.190;2024-03-08T02:25:58;8.30;58.90
3770;DHT22;1900;48.890;9.190;2024-03-08T02:28:25;8.30;58.90
3770;DHT22;1900;48.890;9.190;2024-03-08T02:30:51;8.30;58.90
3770;DHT22;1900;48.890;9.190;2024-03-08T02:33:20;8.30;58.90
3770;DHT22;1900;48.890;9.190;2024-03-08T02:35:46;8.30;58.90
3770;DHT22;1900;48.890;9.190;2024-03-08T02:38:13;8.30;58.90
3770;DHT22;1900;48.890;9.190;2024-03-08T02:40:42;8.20;58.80
3770;DHT22;1900;48.890;9.190;2024-03-08T02:43:09;8.20;58.80
3770;DHT22;1900;48.890;9.190;2024-03-08T02:45:35;8.20;58.80
3770;DHT22;1900;48.890;9.190;2024-03-08T02:48:01;8.20;58.70
3770;DHT22;1900;48.890;9.190;2024-03-08T02:50:27;8.20;58.70
3770;DHT22;1900;48.890;9.190;2024-03-08T02:52:54;8.20;58.70
3770;DHT22;1900;48.890;9.190;2024-03-08T02:55:20;8.10;58.60
3770;DHT22;1900;48.890;9.190;2024-03-08T02:57:46;8.10;58.60
3770;DHT22;1900;48.890;9.190;2024-03-08T03:00:15;8.10;58.60
3770;DHT22;1900;48.890;9.190;2024-03-08T03:02:41;8.10;58.60
3770;DHT22;1900;48.890;9.190;2024-03-08T03:05:08;8.00;58.60
3770;DHT22;1900;48.890;9.190;2024-03-08T03:07:35;8.00;58.50
3770;DHT22;1900;48.890;9.190;2024-03-08T03:10:02;8.00;58.50
3770;DHT22;1900;48.890;9.190;2024-03-08T03:12:28;8.00;58.50
3770;DHT22;1900;48.890;9.190;2024-03-08T03:14:54;7.90;58.50
3770;DHT22;1900;48.890;9.190;2024-03-08T03:17:19;8.00;58.50
3770;DHT22;1900;48.890;9.190;2024-03-08T03:19:45;7.90;58.50
3770;DHT22;1900;48.890;9.190;2024-03-08T03:22:12;7.90;58.50
3770;DHT22;1900;48.890;9.190;2024-03-08T03:24:38;7.90;58.40
3770;DHT22;1900;48.890;9.190;2024-03-08T03:27:04;7.90;58.50
3770;DHT22;1900;48.890;9.190;2024-03-08T03:29:40;7.90;58.50
3770;DHT22;1900;48.890;9.190;2024-03-08T03:32:11;7.90;58.50
3770;DHT22;1900;48.890;9.190;2024-03-08T03:34:38;7.90;58.60
3770;DHT22;1900;48.890;9.190;2024-03-08T03:37:04;7.90;58.50
3770;DHT22;1900;48.890;9.190;2024-03-08T03:39:30;7.80;58.40
3770;DHT22;1900;48.890;9.190;2024-03-08T03:42:22;7.80;58.50
3770;DHT22;1900;48.890;9.190;2024-03-08T03:44:49;7.80;58.40
3770;DHT22;1900;48.890;9.190;2024-03-08T03:47:15;7.80;58.50
3770;DHT22;1900;48.890;9.190;2024-03-08T03:49:41;7.90;58.50
3770;DHT22;1900;48.890;9.190;2024-03-08T03:52:08;7.80;58.40
3770;DHT22;1900;48.890;9.190;2024-03-08T03:54:34;7.80;58.40
3770;DHT22;1900;48.890;9.190;2024-03-08T03:57:00;7.80;58.40
3770;DHT22;1900;48.890;9.190;2024-03-08T03:59:29;7.80;58.40
3770;DHT22;1900;48.890;9.190;2024-03-08T04:01:54;7.80;58.40
3770;DHT22;1900;48.890;9.190;2024-03-08T04:04:21;7.70;58.30
3770;DHT22;1900;48.890;9.190;2024-03-08T04:06:47;7.70;58.30
3770;DHT22;1900;48.890;9.190;2024-03-08T04:09:13;7.70;58.30
3770;DHT22;1900;48.890;9.190;2024-03-08T04:11:39;7.70;58.30
3770;DHT22;1900;48.890;9.190;2024-03-08T04:14:05;7.70;58.30
3770;DHT22;1900;48.890;9.190;2024-03-08T04:16:32;7.80;58.40
3770;DHT22;1900;48.890;9.190;2024-03-08T04:18:58;7.70;58.30
3770;DHT22;1900;48.890;9.190;2024-03-08T04:21:24;7.70;58.30
3770;DHT22;1900;48.890;9.190;2024-03-08T04:23:50;7.70;58.30
3770;DHT22;1900;48.890;9.190;2024-03-08T04:26:15;7.70;58.30
3770;DHT22;1900;48.890;9.190;2024-03-08T04:28:41;7.60;58.20
3770;DHT22;1900;48.890;9.190;2024-03-08T04:31:07;7.60;58.20
3770;DHT22;1900;48.890;9.190;2024-03-08T04:33:33;7.60;58.20
3770;DHT22;1900;48.890;9.190;2024-03-08T04:36:01;7.60;58.20
3770;DHT22;1900;48.890;9.190;2024-03-08T04:38:30;7.60;58.20
3770;DHT22;1900;48.890;9.190;2024-03-08T04:40:57;7.60;58.20
3770;DHT22;1900;48.890;9.190;2024-03-08T04:43:23;7.60;58.20
3770;DHT22;1900;48.890;9.190;2024-03-08T04:45:52;7.60;58.20
3770;DHT22;1900;48.890;9.190;2024-03-08T04:48:18;7.60;58.20
3770;DHT22;1900;48.890;9.190;2024-03-08T04:50:43;7.60;58.20
3770;DHT22;1900;48.890;9.190;2024-03-08T04:53:10;7.60;58.20
3770;DHT22;1900;48.890;9.190;2024-03-08T04:55:36;7.50;58.10
3770;DHT22;1900;48.890;9.190;2024-03-08T04:58:03;7.50;58.20
3770;DHT22;1900;48.890;9.190;2024-03-08T05:00:31;7.60;58.20
3770;DHT22;1900;48.890;9.190;2024-03-08T05:02:58;7.50;58.20
3770;DHT22;1900;48.890;9.190;2024-03-08T05:05:23;7.50;58.20
3770;DHT22;1900;48.890;9.190;2024-03-08T05:07:50;7.50;58.10
3770;DHT22;1900;48.890;9.190;2024-03-08T05:10:16;7.50;58.10
3770;DHT22;1900;48.890;9.190;2024-03-08T05:12:44;7.50;58.10
3770;DHT22;1900;48.890;9.190;2024-03-08T05:15:09;7.50;58.10
3770;DHT22;1900;48.890;9.190;2024-03-08T05:17:35;7.50;58.10
3770;DHT22;1900;48.890;9.190;2024-03-08T05:20:01;7.50;58.10
3770;DHT22;1900;48.890;9.190;2024-03-08T05:22:27;7.50;58.10
3770;DHT22;1900;48.890;9.190;2024-03-08T05:24:53;7.50;58.10
3770;DHT22;1900;48.890;9.190;2024-03-08T05:27:19;7.40;58.00
3770;DHT22;1900;48.890;9.190;2024-03-08T05:29:45;7.50;58.10
3770;DHT22;1900;48.890;9.190;2024-03-08T05:32:12;7.40;58.00
3770;DHT22;1900;48.890;9.190;2024-03-08T05:34:37;7.40;58.00
3770;DHT22;1900;48.890;9.190;2024-03-08T05:37:04;7.40;58.00
3770;DHT22;1900;48.890;9.190;2024-03-08T05:39:30;7.40;58.00
3770;DHT22;1900;48.890;9.190;2024-03-08T05:41:55;7.40;58.10
3770;DHT22;1900;48.890;9.190;2024-03-08T05:44:21;7.40;58.00
3770;DHT22;1900;48.890;9.190;2024-03-08T05:46:47;7.40;58.10
3770;DHT22;1900;48.890;9.190;2024-03-08T05:49:13;7.40;58.00
3770;DHT22;1900;48.890;9.190;2024-03-08T05:51:40;7.40;58.00
3770;DHT22;1900;48.890;9.190;2024-03-08T05:54:08;7.40;58.00
3770;DHT22;1900;48.890;9.190;2024-03-08T05:56:38;7.40;58.00
3770;DHT22;1900;48.890;9.190;2024-03-08T05:59:04;7.40;58.00
3770;DHT22;1900;48.890;9.190;2024-03-08T06:01:30;7.40;58.00
3770;DHT22;1900;48.890;9.190;2024-03-08T06:03:57;7.40;58.00
3770;DHT22;1900;48.890;9.190;2024-03-08T06:06:26;7.40;58.00
3770;DHT22;1900;48.890;9.190;2024-03-08T06:08:52;7.30;57.90
3770;DHT22;1900;48.890;9.190;2024-03-08T06:11:19;7.30;57.90
3770;DHT22;1900;48.890;9.190;2024-03-08T06:13:48;7.30;58.00
3770;DHT22;1900;48.890;9.190;2024-03-08T06:16:15;7.30;57.90
3770;DHT22;1900;48.890;9.190;2024-03-08T06:18:41;7.30;57.90
3770;DHT22;1900;48.890;9.190;2024-03-08T06:21:07;7.30;58.00
3770;DHT22;1900;48.890;9.190;2024-03-08T06:23:35;7.30;58.00
3770;DHT22;1900;48.890;9.190;2024-03-08T06:26:04;7.30;58.00
3770;DHT22;1900;48.890;9.190;2024-03-08T06:28:31;7.30;58.00
3770;DHT22;1900;48.890;9.190;2024-03-08T06:30:58;7.30;58.00
3770;DHT22;1900;48.890;9.190;2024-03-08T06:33:24;7.30;58.10
3770;DHT22;1900;48.890;9.190;2024-03-08T06:35:52;7.30;58.10
3770;DHT22;1900;48.890;9.190;2024-03-08T06:38:18;7.30;58.10
3770;DHT22;1900;48.890;9.190;2024-03-08T06:40:45;7.30;58.10
3770;DHT22;1900;48.890;9.190;2024-03-08T06:43:13;7.30;58.60
3770;DHT22;1900;48.890;9.190;2024-03-08T06:45:42;7.30;58.00
3770;DHT22;1900;48.890;9.190;2024-03-08T06:48:19;7.30;58.10
3770;DHT22;1900;48.890;9.190;2024-03-08T06:50:45;7.30;58.10
3770;DHT22;1900;48.890;9.190;2024-03-08T06:53:12;7.40;58.20
3770;DHT22;1900;48.890;9.190;2024-03-08T06:55:37;7.40;58.20
3770;DHT22;1900;48.890;9.190;2024-03-08T06:58:04;7.40;58.40
3770;DHT22;1900;48.890;9.190;2024-03-08T07:00:29;7.30;58.10
3770;DHT22;1900;48.890;9.190;2024-03-08T07:02:59;7.40;58.20
3770;DHT22;1900;48.890;9.190;2024-03-08T07:05:31;7.40;58.30
3770;DHT22;1900;48.890;9.190;2024-03-08T07:07:58;7.40;58.90
3770;DHT22;1900;48.890;9.190;2024-03-08T07:10:23;7.40;58.30
3770;DHT22;1900;48.890;9.190;2024-03-08T07:12:53;7.40;58.30
3770;DHT22;1900;48.890;9.190;2024-03-08T07:15:19;7.40;58.40
3770;DHT22;1900;48.890;9.190;2024-03-08T07:17:48;7.40;58.40
3770;DHT22;1900;48.890;9.190;2024-03-08T07:20:15;7.50;58.50
3770;DHT22;1900;48.890;9.190;2024-03-08T07:22:44;7.50;58.50
3770;DHT22;1900;48.890;9.190;2024-03-08T07:25:13;7.50;58.50
3770;DHT22;1900;48.890;9.190;2024-03-08T07:27:50;7.50;58.50
3770;DHT22;1900;48.890;9.190;2024-03-08T07:30:24;7.50;58.50
3770;DHT22;1900;48.890;9.190;2024-03-08T07:33:08;7.50;58.50
3770;DHT22;1900;48.890;9.190;2024-03-08T07:35:37;7.50;59.10
3770;DHT22;1900;48.890;9.190;2024-03-08T07:38:07;7.60;58.70
3770;DHT22;1900;48.890;9.190;2024-03-08T07:40:37;7.60;58.70
3770;DHT22;1900;48.890;9.190;2024-03-08T07:43:10;7.60;58.80
3770;DHT22;1900;48.890;9.190;2024-03-08T07:45:40;7.70;58.90
3770;DHT22;1900;48.890;9.190;2024-03-08T07:48:06;7.70;58.90
3770;DHT22;1900;48.890;9.190;2024-03-08T07:50:39;7.70;58.90
3770;DHT22;1900;48.890;9.190;2024-03-08T07:53:05;7.70;58.90
3770;DHT22;1900;48.890;9.190;2024-03-08T07:55:33;7.70;58.90
3770;DHT22;1900;48.890;9.190;2024-03-08T07:57:59;7.80;59.00
3770;DHT22;1900;48.890;9.190;2024-03-08T08:00:25;7.80;58.90
3770;DHT22;1900;48.890;9.190;2024-03-08T08:02:55;7.80;58.90
3770;DHT22;1900;48.890;9.190;2024-03-08T08:05:21;7.90;59.00
3770;DHT22;1900;48.890;9.190;2024-03-08T08:07:47;7.90;59.00
3770;DHT22;1900;48.890;9.190;2024-03-08T08:10:13;7.90;59.00
3770;DHT22;1900;48.890;9.190;2024-03-08T08:12:51;7.90;59.10
3770;DHT22;1900;48.890;9.190;2024-03-08T08:15:19;7.90;59.10
3770;DHT22;1900;48.890;9.190;2024-03-08T08:17:45;8.00;59.20
3770;DHT22;1900;48.890;9.190;2024-03-08T08:20:12;8.00;59.20
3770;DHT22;1900;48.890;9.190;2024-03-08T08:22:39;8.00;59.10
3770;DHT22;1900;48.890;9.190;2024-03-08T08:25:06;8.00;59.10
3770;DHT22;1900;48.890;9.190;2024-03-08T08:27:32;8.00;59.10
3770;DHT22;1900;48.890;9.190;2024-03-08T08:29:59;8.00;59.60
3770;DHT22;1900;48.890;9.190;2024-03-08T08:32:25;8.10;59.10
3770;DHT22;1900;48.890;9.190;2024-03-08T08:34:52;8.10;59.20
3770;DHT22;1900;48.890;9.190;2024-03-08T08:37:17;8.10;59.20
3770;DHT22;1900;48.890;9.190;2024-03-08T08:39:43;8.10;59.20
3770;DHT22;1900;48.890;9.190;2024-03-08T08:42:09;8.20;59.50
3770;DHT22;1900;48.890;9.190;2024-03-08T08:44:35;8.20;59.70
3770;DHT22;1900;48.890;9.190;2024-03-08T08:47:01;8.30;60.00
3770;DHT22;1900;48.890;9.190;2024-03-08T08:49:29;8.30;59.90
3770;DHT22;1900;48.890;9.190;2024-03-08T08:51:56;8.40;59.80
3770;DHT22;1900;48.890;9.190;2024-03-08T08:54:24;8.40;59.70
3770;DHT22;1900;48.890;9.190;2024-03-08T08:56:51;8.40;59.60
3770;DHT22;1900;48.890;9.190;2024-03-08T08:59:16;8.50;59.70
3770;DHT22;1900;48.890;9.190;2024-03-08T09:01:46;8.50;59.60
3770;DHT22;1900;48.890;9.190;2024-03-08T09:04:15;8.50;59.50
3770;DHT22;1900;48.890;9.190;2024-03-08T09:06:41;8.50;59.40
3770;DHT22;1900;48.890;9.190;2024-03-08T09:09:07;8.50;59.30
3770;DHT22;1900;48.890;9.190;2024-03-08T09:11:39;8.50;59.40
3770;DHT22;1900;48.890;9.190;2024-03-08T09:14:08;8.50;59.40
3770;DHT22;1900;48.890;9.190;2024-03-08T09:16:34;8.50;59.30
3770;DHT22;1900;48.890;9.190;2024-03-08T09:19:00;8.50;59.30
3770;DHT22;1900;48.890;9.190;2024-03-08T09:21:26;8.50;59.30
3770;DHT22;1900;48.890;9.190;2024-03-08T09:23:53;8.50;59.30
3770;DHT22;1900;48.890;9.190;2024-03-08T09:26:19;8.50;59.40
3770;DHT22;1900;48.890;9.190;2024-03-08T09:28:45;8.50;59.40
3770;DHT22;1900;48.890;9.190;2024-03-08T09:31:11;8.50;59.40
3770;DHT22;1900;48.890;9.190;2024-03-08T09:33:37;8.50;59.40
3770;DHT22;1900;48.890;9.190;2024-03-08T09:36:06;8.50;59.40
3770;DHT22;1900;48.890;9.190;2024-03-08T09:38:33;8.50;59.40
3770;DHT22;1900;48.890;9.190;2024-03-08T09:41:00;8.60;59.50
3770;DHT22;1900;48.890;9.190;2024-03-08T09:43:28;8.60;59.50
3770;DHT22;1900;48.890;9.190;2024-03-08T09:45:55;8.60;59.60
3770;DHT22;1900;48.890;9.190;2024-03-08T09:48:21;8.60;59.50
3770;DHT22;1900;48.890;9.190;2024-03-08T09:50:47;8.60;59.60
3770;DHT22;1900;48.890;9.190;2024-03-08T09:53:13;8.60;59.60
3770;DHT22;1900;48.890;9.190;2024-03-08T09:55:39;8.70;59.60
3770;DHT22;1900;48.890;9.190;2024-03-08T09:58:08;8.70;59.70
3770;DHT22;1900;48.890;9.190;2024-03-08T10:00:43;8.70;59.70
3770;DHT22;1900;48.890;9.190;2024-03-08T10:03:09;8.70;59.70
3770;DHT22;1900;48.890;9.190;2024-03-08T10:05:36;8.70;59.70
3770;DHT22;1900;48.890;9.190;2024-03-08T10:08:02;8.80;59.70
3770;DHT22;1900;48.890;9.190;2024-03-08T10:10:28;8.80;59.70
3770;DHT22;1900;48.890;9.190;2024-03-08T10:12:55;8.80;59.60
3770;DHT22;1900;48.890;9.190;2024-03-08T10:15:22;8.80;59.60
3770;DHT22;1900;48.890;9.190;2024-03-08T10:17:47;8.80;60.10
3770;DHT22;1900;48.890;9.190;2024-03-08T10:20:15;8.80;59.60
3770;DHT22;1900;48.890;9.190;2024-03-08T10:22:41;8.80;59.60
3770;DHT22;1900;48.890;9.190;2024-03-08T10:25:13;8.80;59.60
3770;DHT22;1900;48.890;9.190;2024-03-08T10:27:39;8.80;59.60
3770;DHT22;1900;48.890;9.190;2024-03-08T10:30:16;8.80;59.70
3770;DHT22;1900;48.890;9.190;2024-03-08T10:32:57;8.90;59.90
3770;DHT22;1900;48.890;9.190;2024-03-08T10:35:24;8.90;60.00
3770;DHT22;1900;48.890;9.190;2024-03-08T10:37:51;8.90;60.00
3770;DHT22;1900;48.890;9.190;2024-03-08T10:40:29;9.00;60.10
3770;DHT22;1900;48.890;9.190;2024-03-08T10:42:59;9.00;60.20
3770;DHT22;1900;48.890;9.190;2024-03-08T10:45:34;9.00;60.10
3770;DHT22;1900;48.890;9.190;2024-03-08T10:48:29;9.10;60.20
3770;DHT22;1900;48.890;9.190;2024-03-08T10:51:05;9.10;60.10
3770;DHT22;1900;48.890;9.190;2024-03-08T10:53:34;9.10;60.10
3770;DHT22;1900;48.890;9.190;2024-03-08T10:56:00;9.20;60.20
3770;DHT22;1900;48.890;9.190;2024-03-08T10:58:27;9.20;60.30
3770;DHT22;1900;48.890;9.190;2024-03-08T11:00:54;9.20;60.30
3770;DHT22;1900;48.890;9.190;2024-03-08T11:03:46;9.20;60.30
3770;DHT22;1900;48.890;9.190;2024-03-08T11:06:19;9.30;60.50
3770;DHT22;1900;48.890;9.190;2024-03-08T11:08:48;9.30;60.50
3770;DHT22;1900;48.890;9.190;2024-03-08T11:11:32;9.40;60.50
3770;DHT22;1900;48.890;9.190;2024-03-08T11:14:00;9.40;60.60
3770;DHT22;1900;48.890;9.190;2024-03-08T11:19:05;9.50;60.80
3770;DHT22;1900;48.890;9.190;2024-03-08T11:21:32;9.50;60.70
3770;DHT22;1900;48.890;9.190;2024-03-08T11:24:10;9.50;60.70
3770;DHT22;1900;48.890;9.190;2024-03-08T11:26:37;9.60;60.80
3770;DHT22;1900;48.890;9.190;2024-03-08T11:32:17;9.70;61.10
3770;DHT22;1900;48.890;9.190;2024-03-08T11:34:49;9.80;61.30
3770;DHT22;1900;48.890;9.190;2024-03-08T11:37:19;9.90;61.60
3770;DHT22;1900;48.890;9.190;2024-03-08T11:39:53;10.00;60.70
3770;DHT22;1900;48.890;9.190;2024-03-08T11:42:25;10.00;60.60
3770;DHT22;1900;48.890;9.190;2024-03-08T11:44:53;10.10;60.50
3770;DHT22;1900;48.890;9.190;2024-03-08T11:47:21;10.20;60.50
3770;DHT22;1900;48.890;9.190;2024-03-08T11:49:47;10.30;60.80
3770;DHT22;1900;48.890;9.190;2024-03-08T11:52:16;10.40;61.00
3770;DHT22;1900;48.890;9.190;2024-03-08T11:54:53;10.40;61.20
3770;DHT22;1900;48.890;9.190;2024-03-08T11:57:23;10.60;61.60
3770;DHT22;1900;48.890;9.190;2024-03-08T11:59:56;10.80;62.10
3770;DHT22;1900;48.890;9.190;2024-03-08T12:02:22;10.90;62.50
3770;DHT22;1900;48.890;9.190;2024-03-08T12:04:59;11.10;62.90
3770;DHT22;1900;48.890;9.190;2024-03-08T12:07:26;11.20;63.00
3770;DHT22;1900;48.890;9.190;2024-03-08T12:12:53;11.50;63.10
3770;DHT22;1900;48.890;9.190;2024-03-08T12:15:20;11.70;63.60
3770;DHT22;1900;48.890;9.190;2024-03-08T12:17:48;11.80;63.50
3770;DHT22;1900;48.890;9.190;2024-03-08T12:20:22;12.10;63.80
3770;DHT22;1900;48.890;9.190;2024-03-08T12:22:49;12.20;64.10
3770;DHT22;1900;48.890;9.190;2024-03-08T12:25:15;12.40;64.60
3770;DHT22;1900;48.890;9.190;2024-03-08T12:27:43;12.50;64.60
3770;DHT22;1900;48.890;9.190;2024-03-08T12:32:55;12.90;65.30
3770;DHT22;1900;48.890;9.190;2024-03-08T12:35:24;13.10;65.40
3770;DHT22;1900;48.890;9.190;2024-03-08T12:37:54;13.30;65.30
3770;DHT22;1900;48.890;9.190;2024-03-08T12:40:28;13.40;65.30
3770;DHT22;1900;48.890;9.190;2024-03-08T12:42:58;13.60;65.50
3770;DHT22;1900;48.890;9.190;2024-03-08T12:45:24;13.80;65.80
3770;DHT22;1900;48.890;9.190;2024-03-08T12:47:54;13.90;65.20
3770;DHT22;1900;48.890;9.190;2024-03-08T12:50:21;14.10;65.60
3770;DHT22;1900;48.890;9.190;2024-03-08T12:52:48;14.20;65.80
3770;DHT22;1900;48.890;9.190;2024-03-08T12:55:19;14.40;65.80
3770;DHT22;1900;48.890;9.190;2024-03-08T12:57:45;14.50;66.10
3770;DHT22;1900;48.890;9.190;2024-03-08T13:00:13;14.70;66.30
3770;DHT22;1900;48.890;9.190;2024-03-08T13:02:47;14.80;66.30
3770;DHT22;1900;48.890;9.190;2024-03-08T13:05:13;15.00;66.40
3770;DHT22;1900;48.890;9.190;2024-03-08T13:07:41;15.10;66.70
3770;DHT22;1900;48.890;9.190;2024-03-08T13:10:16;15.30;67.10
3770;DHT22;1900;48.890;9.190;2024-03-08T13:12:42;15.50;67.40
3770;DHT22;1900;48.890;9.190;2024-03-08T13:15:09;15.70;67.40
3770;DHT22;1900;48.890;9.190;2024-03-08T13:17:37;15.80;67.50
3770;DHT22;1900;48.890;9.190;2024-03-08T13:20:07;16.00;67.50
3770;DHT22;1900;48.890;9.190;2024-03-08T13:22:33;16.10;67.20
3770;DHT22;1900;48.890;9.190;2024-03-08T13:24:59;16.30;67.30
3770;DHT22;1900;48.890;9.190;2024-03-08T13:27:27;16.40;67.40
3770;DHT22;1900;48.890;9.190;2024-03-08T13:29:53;16.60;67.50
3770;DHT22;1900;48.890;9.190;2024-03-08T13:32:19;16.70;67.50
3770;DHT22;1900;48.890;9.190;2024-03-08T13:34:46;16.80;67.60
3770;DHT22;1900;48.890;9.190;2024-03-08T13:37:17;17.00;67.70
3770;DHT22;1900;48.890;9.190;2024-03-08T13:39:43;17.10;67.80
3770;DHT22;1900;48.890;9.190;2024-03-08T13:42:14;17.30;68.20
3770;DHT22;1900;48.890;9.190;2024-03-08T13:44:48;17.50;68.60
3770;DHT22;1900;48.890;9.190;2024-03-08T13:47:17;17.70;68.60
3770;DHT22;1900;48.890;9.190;2024-03-08T13:49:44;17.80;68.70
3770;DHT22;1900;48.890;9.190;2024-03-08T13:52:10;18.00;68.70
3770;DHT22;1900;48.890;9.190;2024-03-08T13:54:38;18.10;68.70
3770;DHT22;1900;48.890;9.190;2024-03-08T13:57:04;18.30;68.90
3770;DHT22;1900;48.890;9.190;2024-03-08T13:59:34;18.50;69.00
3770;DHT22;1900;48.890;9.190;2024-03-08T14:02:04;18.60;68.70
3770;DHT22;1900;48.890;9.190;2024-03-08T14:04:31;18.80;68.90
3770;DHT22;1900;48.890;9.190;2024-03-08T14:06:57;18.90;68.90
3770;DHT22;1900;48.890;9.190;2024-03-08T14:09:26;19.10;68.90
3770;DHT22;1900;48.890;9.190;2024-03-08T14:11:55;19.20;68.90
3770;DHT22;1900;48.890;9.190;2024-03-08T14:14:23;19.40;68.60
3770;DHT22;1900;48.890;9.190;2024-03-08T14:16:49;19.50;68.70
3770;DHT22;1900;48.890;9.190;2024-03-08T14:19:20;19.60;68.50
3770;DHT22;1900;48.890;9.190;2024-03-08T14:21:46;19.70;68.40
3770;DHT22;1900;48.890;9.190;2024-03-08T14:24:15;19.80;68.20
3770;DHT22;1900;48.890;9.190;2024-03-08T14:26:41;19.90;67.90
3770;DHT22;1900;48.890;9.190;2024-03-08T14:29:08;20.00;67.90
3770;DHT22;1900;48.890;9.190;2024-03-08T14:31:36;20.10;68.10
3770;DHT22;1900;48.890;9.190;2024-03-08T14:34:02;20.20;68.80
3770;DHT22;1900;48.890;9.190;2024-03-08T14:36:29;20.30;68.00
3770;DHT22;1900;48.890;9.190;2024-03-08T14:38:55;20.40;67.50
3770;DHT22;1900;48.890;9.190;2024-03-08T14:41:21;20.40;67.10
3770;DHT22;1900;48.890;9.190;2024-03-08T14:43:48;20.40;66.80
3770;DHT22;1900;48.890;9.190;2024-03-08T14:46:15;20.30;66.10
3770;DHT22;1900;48.890;9.190;2024-03-08T14:48:54;20.30;65.80
3770;DHT22;1900;48.890;9.190;2024-03-08T14:51:22;20.20;65.50
3770;DHT22;1900;48.890;9.190;2024-03-08T14:53:54;20.10;65.50
3770;DHT22;1900;48.890;9.190;2024-03-08T14:56:21;20.10;65.40
3770;DHT22;1900;48.890;9.190;2024-03-08T14:58:47;20.00;65.30
3770;DHT22;1900;48.890;9.190;2024-03-08T15:01:15;20.00;65.30
3770;DHT22;1900;48.890;9.190;2024-03-08T15:03:41;19.90;65.00
3770;DHT22;1900;48.890;9.190;2024-03-08T15:06:08;19.80;64.60
3770;DHT22;1900;48.890;9.190;2024-03-08T15:08:38;19.70;64.60
3770;DHT22;1900;48.890;9.190;2024-03-08T15:11:05;19.70;64.60
3770;DHT22;1900;48.890;9.190;2024-03-08T15:13:34;19.60;64.70
3770;DHT22;1900;48.890;9.190;2024-03-08T15:16:07;19.60;65.10
3770;DHT22;1900;48.890;9.190;2024-03-08T15:18:34;19.60;65.60
3770;DHT22;1900;48.890;9.190;2024-03-08T15:21:05;19.50;65.70
3770;DHT22;1900;48.890;9.190;2024-03-08T15:23:37;19.50;66.00
3770;DHT22;1900;48.890;9.190;2024-03-08T15:26:03;19.60;66.50
3770;DHT22;1900;48.890;9.190;2024-03-08T15:28:33;19.60;66.80
3770;DHT22;1900;48.890;9.190;2024-03-08T15:31:06;19.70;66.80
3770;DHT22;1900;48.890;9.190;2024-03-08T15:33:36;19.70;66.20
3770;DHT22;1900;48.890;9.190;2024-03-08T15:36:13;19.80;65.80
3770;DHT22;1900;48.890;9.190;2024-03-08T15:38:41;19.80;65.40
3770;DHT22;1900;48.890;9.190;2024-03-08T15:41:09;19.90;64.80
3770;DHT22;1900;48.890;9.190;2024-03-08T15:43:39;19.80;64.20
3770;DHT22;1900;48.890;9.190;2024-03-08T15:46:06;19.80;63.70
3770;DHT22;1900;48.890;9.190;2024-03-08T15:48:32;19.70;63.40
3770;DHT22;1900;48.890;9.190;2024-03-08T15:50:59;19.50;62.90
3770;DHT22;1900;48.890;9.190;2024-03-08T15:53:28;19.40;62.60
3770;DHT22;1900;48.890;9.190;2024-03-08T15:55:57;19.30;62.40
3770;DHT22;1900;48.890;9.190;2024-03-08T15:58:24;19.10;62.10
3770;DHT22;1900;48.890;9.190;2024-03-08T16:00:50;18.90;61.90
3770;DHT22;1900;48.890;9.190;2024-03-08T16:03:18;18.70;61.70
3770;DHT22;1900;48.890;9.190;2024-03-08T16:05:46;18.60;61.60
3770;DHT22;1900;48.890;9.190;2024-03-08T16:08:15;18.40;61.40
3770;DHT22;1900;48.890;9.190;2024-03-08T16:10:46;18.30;61.20
3770;DHT22;1900;48.890;9.190;2024-03-08T16:13:18;18.10;61.00
3770;DHT22;1900;48.890;9.190;2024-03-08T16:15:44;18.00;61.00
3770;DHT22;1900;48.890;9.190;2024-03-08T16:18:11;17.80;60.90
3770;DHT22;1900;48.890;9.190;2024-03-08T16:20:39;17.70;60.80
3770;DHT22;1900;48.890;9.190;2024-03-08T16:23:05;17.60;60.70
3770;DHT22;1900;48.890;9.190;2024-03-08T16:25:31;17.50;60.70
3770;DHT22;1900;48.890;9.190;2024-03-08T16:27:57;17.30;60.50